sensor_id;sensor_type;location;lat;lon;timestamp;P1;durP1;ratioP1;P2;durP2;ratioP2
39778;SDS011;25454;49.878;8.618;2022-12-17T00:02:28;20.93;;;11.93;;
39778;SDS011;25454;49.878;8.618;2022-12-17T00:07:50;18.73;;;10.87;;
39778;SDS011;25454;49.878;8.618;2022-12-17T00:13:18;20.23;;;11.30;;
39778;SDS011;25454;49.878;8.618;2022-12-17T00:18:38;17.53;;;10.60;;
39778;SDS011;25454;49.878;8.618;2022-12-17T00:23:57;21.47;;;10.50;;
39778;SDS011;25454;49.878;8.618;2022-12-17T00:29:17;24.33;;;12.00;;
39778;SDS011;25454;49.878;8.618;2022-12-17T00:34:36;17.27;;;9.77;;
39778;SDS011;25454;49.878;8.618;2022-12-17T00:39:55;19.27;;;11.17;;
39778;SDS011;25454;49.878;8.618;2022-12-17T00:45:15;18.90;;;11.77;;
39778;SDS011;25454;49.878;8.618;2022-12-17T00:50:34;20.00;;;11.50;;
39778;SDS011;25454;49.878;8.618;2022-12-17T00:55:53;18.03;;;10.93;;
39778;SDS011;25454;49.878;8.618;2022-12-17T01:01:12;21.10;;;11.50;;
39778;SDS011;25454;49.878;8.618;2022-12-17T01:06:32;17.87;;;10.43;;
39778;SDS011;25454;49.878;8.618;2022-12-17T01:11:51;19.37;;;10.70;;
39778;SDS011;25454;49.878;8.618;2022-12-17T01:17:10;20.33;;;11.17;;
39778;SDS011;25454;49.878;8.618;2022-12-17T01:22:30;17.73;;;10.37;;
39778;SDS011;25454;49.878;8.618;2022-12-17T01:27:49;17.60;;;10.63;;
39778;SDS011;25454;49.878;8.618;2022-12-17T01:33:09;18.53;;;10.57;;
39778;SDS011;25454;49.878;8.618;2022-12-17T01:38:29;21.97;;;11.43;;
39778;SDS011;25454;49.878;8.618;2022-12-17T01:43:51;27.43;;;13.53;;
39778;SDS011;25454;49.878;8.618;2022-12-17T01:49:10;24.00;;;13.07;;
39778;SDS011;25454;49.878;8.618;2022-12-17T01:54:29;23.00;;;12.77;;
39778;SDS011;25454;49.878;8.618;2022-12-17T01:59:51;23.83;;;13.93;;
39778;SDS011;25454;49.878;8.618;2022-12-17T02:05:33;23.57;;;12.77;;
39778;SDS011;25454;49.878;8.618;2022-12-17T02:17:06;23.23;;;13.67;;
39778;SDS011;25454;49.878;8.618;2022-12-17T02:28:13;23.03;;;13.40;;
39778;SDS011;25454;49.878;8.618;2022-12-17T02:33:33;23.40;;;13.23;;
39778;SDS011;25454;49.878;8.618;2022-12-17T02:38:52;21.43;;;13.17;;
39778;SDS011;25454;49.878;8.618;2022-12-17T02:44:12;21.90;;;12.90;;
39778;SDS011;25454;49.878;8.618;2022-12-17T02:49:34;21.03;;;13.03;;
39778;SDS011;25454;49.878;8.618;2022-12-17T02:54:59;23.27;;;13.70;;
39778;SDS011;25454;49.878;8.618;2022-12-17T03:00:18;26.30;;;14.03;;
39778;SDS011;25454;49.878;8.618;2022-12-17T03:05:37;23.10;;;13.27;;
39778;SDS011;25454;49.878;8.618;2022-12-17T03:10:56;21.77;;;12.73;;
39778;SDS011;25454;49.878;8.618;2022-12-17T03:16:16;20.93;;;12.30;;
39778;SDS011;25454;49.878;8.618;2022-12-17T03:21:35;21.53;;;12.63;;
39778;SDS011;25454;49.878;8.618;2022-12-17T03:26:55;19.90;;;12.57;;
39778;SDS011;25454;49.878;8.618;2022-12-17T03:32:14;23.53;;;13.17;;
39778;SDS011;25454;49.878;8.618;2022-12-17T03:37:36;22.23;;;12.33;;
39778;SDS011;25454;49.878;8.618;2022-12-17T03:42:55;20.07;;;12.10;;
39778;SDS011;25454;49.878;8.618;2022-12-17T03:48:15;21.37;;;11.60;;
39778;SDS011;25454;49.878;8.618;2022-12-17T03:53:34;21.97;;;12.57;;
39778;SDS011;25454;49.878;8.618;2022-12-17T03:58:54;21.30;;;12.53;;
39778;SDS011;25454;49.878;8.618;2022-12-17T04:04:13;22.60;;;13.27;;
39778;SDS011;25454;49.878;8.618;2022-12-17T04:09:32;23.43;;;12.87;;
39778;SDS011;25454;49.878;8.618;2022-12-17T04:14:52;21.30;;;12.03;;
39778;SDS011;25454;49.878;8.618;2022-12-17T04:20:14;21.40;;;12.73;;
39778;SDS011;25454;49.878;8.618;2022-12-17T04:25:34;21.77;;;12.97;;
39778;SDS011;25454;49.878;8.618;2022-12-17T04:30:53;21.70;;;12.43;;
39778;SDS011;25454;49.878;8.618;2022-12-17T04:36:12;21.87;;;12.07;;
39778;SDS011;25454;49.878;8.618;2022-12-17T04:41:32;23.17;;;12.73;;
39778;SDS011;25454;49.878;8.618;2022-12-17T04:46:51;20.37;;;11.77;;
39778;SDS011;25454;49.878;8.618;2022-12-17T04:52:10;20.90;;;12.30;;
39778;SDS011;25454;49.878;8.618;2022-12-17T04:57:29;19.10;;;12.17;;
39778;SDS011;25454;49.878;8.618;2022-12-17T05:02:49;26.60;;;13.20;;
39778;SDS011;25454;49.878;8.618;2022-12-17T05:08:08;23.73;;;12.87;;
39778;SDS011;25454;49.878;8.618;2022-12-17T05:13:27;25.67;;;13.17;;
39778;SDS011;25454;49.878;8.618;2022-12-17T05:18:47;21.90;;;12.23;;
39778;SDS011;25454;49.878;8.618;2022-12-17T05:24:26;21.50;;;11.80;;
39778;SDS011;25454;49.878;8.618;2022-12-17T05:29:45;20.60;;;11.93;;
39778;SDS011;25454;49.878;8.618;2022-12-17T05:35:21;22.63;;;12.17;;
39778;SDS011;25454;49.878;8.618;2022-12-17T05:40:40;19.87;;;11.17;;
39778;SDS011;25454;49.878;8.618;2022-12-17T05:45:59;19.60;;;10.23;;
39778;SDS011;25454;49.878;8.618;2022-12-17T05:51:19;16.90;;;10.53;;
39778;SDS011;25454;49.878;8.618;2022-12-17T05:56:38;20.37;;;10.83;;
39778;SDS011;25454;49.878;8.618;2022-12-17T06:01:58;20.57;;;11.60;;
39778;SDS011;25454;49.878;8.618;2022-12-17T06:07:17;19.60;;;12.00;;
39778;SDS011;25454;49.878;8.618;2022-12-17T06:12:36;18.47;;;11.43;;
39778;SDS011;25454;49.878;8.618;2022-12-17T06:18:04;21.30;;;12.03;;
39778;SDS011;25454;49.878;8.618;2022-12-17T06:23:28;23.63;;;11.83;;
39778;SDS011;25454;49.878;8.618;2022-12-17T06:28:47;20.47;;;11.93;;
39778;SDS011;25454;49.878;8.618;2022-12-17T06:34:06;25.83;;;13.07;;
39778;SDS011;25454;49.878;8.618;2022-12-17T06:39:26;23.30;;;12.57;;
39778;SDS011;25454;49.878;8.618;2022-12-17T06:44:45;24.20;;;13.27;;
39778;SDS011;25454;49.878;8.618;2022-12-17T06:50:05;24.70;;;13.27;;
39778;SDS011;25454;49.878;8.618;2022-12-17T06:55:24;25.87;;;13.97;;
39778;SDS011;25454;49.878;8.618;2022-12-17T07:00:44;27.73;;;13.77;;
39778;SDS011;25454;49.878;8.618;2022-12-17T07:06:04;26.37;;;13.97;;
39778;SDS011;25454;49.878;8.618;2022-12-17T07:11:23;26.17;;;13.70;;
39778;SDS011;25454;49.878;8.618;2022-12-17T07:16:42;24.87;;;13.03;;
39778;SDS011;25454;49.878;8.618;2022-12-17T07:22:02;22.73;;;12.93;;
39778;SDS011;25454;49.878;8.618;2022-12-17T07:27:21;23.90;;;13.67;;
39778;SDS011;25454;49.878;8.618;2022-12-17T07:32:40;23.67;;;12.77;;
39778;SDS011;25454;49.878;8.618;2022-12-17T07:38:03;23.63;;;13.23;;
39778;SDS011;25454;49.878;8.618;2022-12-17T07:43:36;22.87;;;12.87;;
39778;SDS011;25454;49.878;8.618;2022-12-17T07:48:58;20.63;;;11.40;;
39778;SDS011;25454;49.878;8.618;2022-12-17T07:54:17;23.90;;;11.80;;
39778;SDS011;25454;49.878;8.618;2022-12-17T07:59:36;23.23;;;12.57;;
39778;SDS011;25454;49.878;8.618;2022-12-17T08:04:55;23.37;;;12.43;;
39778;SDS011;25454;49.878;8.618;2022-12-17T08:10:15;24.80;;;13.13;;
39778;SDS011;25454;49.878;8.618;2022-12-17T08:15:34;23.07;;;12.90;;
39778;SDS011;25454;49.878;8.618;2022-12-17T08:20:53;24.10;;;12.50;;
39778;SDS011;25454;49.878;8.618;2022-12-17T08:26:12;24.03;;;13.67;;
39778;SDS011;25454;49.878;8.618;2022-12-17T08:31:32;23.77;;;12.90;;
39778;SDS011;25454;49.878;8.618;2022-12-17T08:36:51;26.93;;;13.83;;
39778;SDS011;25454;49.878;8.618;2022-12-17T08:42:10;25.60;;;13.57;;
39778;SDS011;25454;49.878;8.618;2022-12-17T08:47:30;23.37;;;13.20;;
39778;SDS011;25454;49.878;8.618;2022-12-17T08:52:55;24.93;;;13.50;;
39778;SDS011;25454;49.878;8.618;2022-12-17T08:58:18;26.80;;;14.90;;
39778;SDS011;25454;49.878;8.618;2022-12-17T09:03:37;29.77;;;16.40;;
39778;SDS011;25454;49.878;8.618;2022-12-17T09:08:56;31.00;;;17.00;;
39778;SDS011;25454;49.878;8.618;2022-12-17T09:14:16;28.53;;;16.40;;
39778;SDS011;25454;49.878;8.618;2022-12-17T09:19:35;33.77;;;17.57;;
39778;SDS011;25454;49.878;8.618;2022-12-17T09:24:54;24.33;;;15.63;;
39778;SDS011;25454;49.878;8.618;2022-12-17T09:30:13;29.83;;;16.70;;
39778;SDS011;25454;49.878;8.618;2022-12-17T09:35:33;26.67;;;17.37;;
39778;SDS011;25454;49.878;8.618;2022-12-17T09:40:54;25.87;;;16.30;;
39778;SDS011;25454;49.878;8.618;2022-12-17T09:46:29;25.10;;;16.53;;
39778;SDS011;25454;49.878;8.618;2022-12-17T09:51:58;22.27;;;15.53;;
39778;SDS011;25454;49.878;8.618;2022-12-17T09:57:19;22.23;;;16.20;;
39778;SDS011;25454;49.878;8.618;2022-12-17T10:02:41;24.13;;;17.13;;
39778;SDS011;25454;49.878;8.618;2022-12-17T10:08:00;25.10;;;17.77;;
39778;SDS011;25454;49.878;8.618;2022-12-17T10:13:22;24.13;;;17.07;;
39778;SDS011;25454;49.878;8.618;2022-12-17T10:18:42;24.33;;;17.27;;
39778;SDS011;25454;49.878;8.618;2022-12-17T10:24:06;23.37;;;17.70;;
39778;SDS011;25454;49.878;8.618;2022-12-17T10:29:26;24.77;;;18.10;;
39778;SDS011;25454;49.878;8.618;2022-12-17T10:34:49;21.13;;;16.47;;
39778;SDS011;25454;49.878;8.618;2022-12-17T10:40:16;21.50;;;16.83;;
39778;SDS011;25454;49.878;8.618;2022-12-17T10:45:51;23.07;;;17.83;;
39778;SDS011;25454;49.878;8.618;2022-12-17T10:56:51;19.97;;;15.93;;
39778;SDS011;25454;49.878;8.618;2022-12-17T11:02:26;21.20;;;16.30;;
39778;SDS011;25454;49.878;8.618;2022-12-17T11:07:47;19.13;;;15.60;;
39778;SDS011;25454;49.878;8.618;2022-12-17T11:13:11;20.83;;;15.90;;
39778;SDS011;25454;49.878;8.618;2022-12-17T11:24:17;21.27;;;16.33;;
39778;SDS011;25454;49.878;8.618;2022-12-17T11:29:42;22.63;;;16.07;;
39778;SDS011;25454;49.878;8.618;2022-12-17T11:40:28;24.53;;;16.50;;
39778;SDS011;25454;49.878;8.618;2022-12-17T11:46:08;23.33;;;16.13;;
39778;SDS011;25454;49.878;8.618;2022-12-17T11:57:49;25.90;;;15.90;;
39778;SDS011;25454;49.878;8.618;2022-12-17T12:03:26;24.87;;;16.03;;
39778;SDS011;25454;49.878;8.618;2022-12-17T12:09:16;25.47;;;15.87;;
39778;SDS011;25454;49.878;8.618;2022-12-17T12:15:11;23.27;;;15.07;;
39778;SDS011;25454;49.878;8.618;2022-12-17T12:32:41;28.13;;;16.50;;
39778;SDS011;25454;49.878;8.618;2022-12-17T12:38:24;25.67;;;17.30;;
39778;SDS011;25454;49.878;8.618;2022-12-17T12:43:51;26.97;;;17.50;;
39778;SDS011;25454;49.878;8.618;2022-12-17T12:49:34;28.10;;;16.87;;
39778;SDS011;25454;49.878;8.618;2022-12-17T12:55:02;29.77;;;18.00;;
39778;SDS011;25454;49.878;8.618;2022-12-17T13:05:50;31.07;;;17.83;;
39778;SDS011;25454;49.878;8.618;2022-12-17T13:10:51;32.53;;;19.33;;
39778;SDS011;25454;49.878;8.618;2022-12-17T13:15:54;30.17;;;18.10;;
39778;SDS011;25454;49.878;8.618;2022-12-17T13:26:22;31.60;;;19.37;;
39778;SDS011;25454;49.878;8.618;2022-12-17T13:36:59;31.00;;;19.43;;
39778;SDS011;25454;49.878;8.618;2022-12-17T13:42:15;32.10;;;19.53;;
39778;SDS011;25454;49.878;8.618;2022-12-17T13:47:31;33.13;;;19.27;;
39778;SDS011;25454;49.878;8.618;2022-12-17T13:52:34;34.70;;;19.87;;
39778;SDS011;25454;49.878;8.618;2022-12-17T13:57:35;36.50;;;20.50;;
39778;SDS011;25454;49.878;8.618;2022-12-17T14:02:43;31.03;;;17.77;;
39778;SDS011;25454;49.878;8.618;2022-12-17T14:07:44;32.77;;;18.00;;
39778;SDS011;25454;49.878;8.618;2022-12-17T14:12:45;39.87;;;21.20;;
39778;SDS011;25454;49.878;8.618;2022-12-17T14:17:46;31.80;;;19.10;;
39778;SDS011;25454;49.878;8.618;2022-12-17T14:22:49;37.00;;;20.87;;
39778;SDS011;25454;49.878;8.618;2022-12-17T14:27:57;36.40;;;21.73;;
39778;SDS011;25454;49.878;8.618;2022-12-17T14:33:00;38.23;;;22.03;;
39778;SDS011;25454;49.878;8.618;2022-12-17T14:38:00;38.83;;;20.57;;
39778;SDS011;25454;49.878;8.618;2022-12-17T14:43:01;37.33;;;20.97;;
39778;SDS011;25454;49.878;8.618;2022-12-17T14:48:12;38.93;;;21.60;;
39778;SDS011;25454;49.878;8.618;2022-12-17T14:53:22;34.67;;;20.47;;
39778;SDS011;25454;49.878;8.618;2022-12-17T14:58:25;37.67;;;20.90;;
39778;SDS011;25454;49.878;8.618;2022-12-17T15:03:47;35.13;;;18.80;;
39778;SDS011;25454;49.878;8.618;2022-12-17T15:08:48;33.90;;;19.03;;
39778;SDS011;25454;49.878;8.618;2022-12-17T15:13:49;35.67;;;20.03;;
39778;SDS011;25454;49.878;8.618;2022-12-17T15:18:49;67.10;;;35.07;;
39778;SDS011;25454;49.878;8.618;2022-12-17T15:23:50;38.27;;;20.07;;
39778;SDS011;25454;49.878;8.618;2022-12-17T15:28:57;36.80;;;20.67;;
39778;SDS011;25454;49.878;8.618;2022-12-17T15:33:58;32.20;;;18.73;;
39778;SDS011;25454;49.878;8.618;2022-12-17T15:38:58;37.97;;;20.37;;
39778;SDS011;25454;49.878;8.618;2022-12-17T15:43:59;34.60;;;19.53;;
39778;SDS011;25454;49.878;8.618;2022-12-17T15:49:00;41.90;;;21.77;;
39778;SDS011;25454;49.878;8.618;2022-12-17T15:54:01;41.93;;;21.73;;
39778;SDS011;25454;49.878;8.618;2022-12-17T15:59:01;41.30;;;21.30;;
39778;SDS011;25454;49.878;8.618;2022-12-17T16:04:02;41.20;;;21.33;;
39778;SDS011;25454;49.878;8.618;2022-12-17T16:09:03;42.47;;;21.63;;
39778;SDS011;25454;49.878;8.618;2022-12-17T16:14:03;43.83;;;22.40;;
39778;SDS011;25454;49.878;8.618;2022-12-17T16:19:04;45.00;;;21.60;;
39778;SDS011;25454;49.878;8.618;2022-12-17T16:24:05;42.33;;;22.10;;
39778;SDS011;25454;49.878;8.618;2022-12-17T16:29:09;42.07;;;20.30;;
39778;SDS011;25454;49.878;8.618;2022-12-17T16:34:11;41.90;;;21.97;;
39778;SDS011;25454;49.878;8.618;2022-12-17T16:39:15;41.87;;;22.43;;
39778;SDS011;25454;49.878;8.618;2022-12-17T16:44:17;40.80;;;20.33;;
39778;SDS011;25454;49.878;8.618;2022-12-17T16:49:21;44.33;;;23.10;;
39778;SDS011;25454;49.878;8.618;2022-12-17T16:54:23;39.17;;;21.63;;
39778;SDS011;25454;49.878;8.618;2022-12-17T16:59:26;39.10;;;20.40;;
39778;SDS011;25454;49.878;8.618;2022-12-17T17:04:27;39.90;;;21.80;;
39778;SDS011;25454;49.878;8.618;2022-12-17T17:09:27;44.47;;;21.63;;
39778;SDS011;25454;49.878;8.618;2022-12-17T17:14:31;43.90;;;21.43;;
39778;SDS011;25454;49.878;8.618;2022-12-17T17:19:32;42.60;;;20.77;;
39778;SDS011;25454;49.878;8.618;2022-12-17T17:24:32;47.53;;;22.87;;
39778;SDS011;25454;49.878;8.618;2022-12-17T17:29:33;41.37;;;20.50;;
39778;SDS011;25454;49.878;8.618;2022-12-17T17:34:37;46.90;;;22.70;;
39778;SDS011;25454;49.878;8.618;2022-12-17T17:39:38;43.77;;;21.43;;
39778;SDS011;25454;49.878;8.618;2022-12-17T17:44:40;42.07;;;21.40;;
39778;SDS011;25454;49.878;8.618;2022-12-17T17:49:45;44.77;;;21.47;;
39778;SDS011;25454;49.878;8.618;2022-12-17T17:54:46;47.53;;;23.20;;
39778;SDS011;25454;49.878;8.618;2022-12-17T17:59:46;38.43;;;20.93;;
39778;SDS011;25454;49.878;8.618;2022-12-17T18:04:47;39.47;;;20.43;;
39778;SDS011;25454;49.878;8.618;2022-12-17T18:09:47;44.63;;;21.77;;
39778;SDS011;25454;49.878;8.618;2022-12-17T18:14:48;39.13;;;21.07;;
39778;SDS011;25454;49.878;8.618;2022-12-17T18:19:50;49.07;;;23.33;;
39778;SDS011;25454;49.878;8.618;2022-12-17T18:24:50;44.33;;;22.37;;
39778;SDS011;25454;49.878;8.618;2022-12-17T18:29:51;42.40;;;21.93;;
39778;SDS011;25454;49.878;8.618;2022-12-17T18:34:51;46.23;;;21.47;;
39778;SDS011;25454;49.878;8.618;2022-12-17T18:39:52;41.33;;;21.67;;
39778;SDS011;25454;49.878;8.618;2022-12-17T18:44:52;42.33;;;20.93;;
39778;SDS011;25454;49.878;8.618;2022-12-17T18:49:53;42.00;;;20.70;;
39778;SDS011;25454;49.878;8.618;2022-12-17T18:54:54;38.37;;;19.73;;
39778;SDS011;25454;49.878;8.618;2022-12-17T18:59:54;38.37;;;19.77;;
39778;SDS011;25454;49.878;8.618;2022-12-17T19:04:55;43.30;;;20.77;;
39778;SDS011;25454;49.878;8.618;2022-12-17T19:09:56;43.53;;;21.73;;
39778;SDS011;25454;49.878;8.618;2022-12-17T19:14:56;43.03;;;21.03;;
39778;SDS011;25454;49.878;8.618;2022-12-17T19:19:57;46.77;;;20.77;;
39778;SDS011;25454;49.878;8.618;2022-12-17T19:24:57;44.67;;;20.47;;
39778;SDS011;25454;49.878;8.618;2022-12-17T19:29:58;43.83;;;22.13;;
39778;SDS011;25454;49.878;8.618;2022-12-17T19:35:01;48.03;;;22.73;;
39778;SDS011;25454;49.878;8.618;2022-12-17T19:40:02;45.07;;;21.13;;
39778;SDS011;25454;49.878;8.618;2022-12-17T19:45:03;53.37;;;23.77;;
39778;SDS011;25454;49.878;8.618;2022-12-17T19:50:04;43.53;;;21.77;;
39778;SDS011;25454;49.878;8.618;2022-12-17T19:55:05;46.83;;;22.73;;
39778;SDS011;25454;49.878;8.618;2022-12-17T20:00:06;44.87;;;21.23;;
39778;SDS011;25454;49.878;8.618;2022-12-17T20:05:07;43.77;;;21.93;;
39778;SDS011;25454;49.878;8.618;2022-12-17T20:10:08;45.90;;;21.20;;
39778;SDS011;25454;49.878;8.618;2022-12-17T20:15:09;42.20;;;20.67;;
39778;SDS011;25454;49.878;8.618;2022-12-17T20:20:09;42.97;;;21.53;;
39778;SDS011;25454;49.878;8.618;2022-12-17T20:25:10;47.17;;;22.30;;
39778;SDS011;25454;49.878;8.618;2022-12-17T20:30:11;42.63;;;22.17;;
39778;SDS011;25454;49.878;8.618;2022-12-17T20:35:11;45.53;;;22.03;;
39778;SDS011;25454;49.878;8.618;2022-12-17T20:40:12;46.73;;;22.13;;
39778;SDS011;25454;49.878;8.618;2022-12-17T20:45:13;45.17;;;21.13;;
39778;SDS011;25454;49.878;8.618;2022-12-17T20:50:13;45.10;;;21.17;;
39778;SDS011;25454;49.878;8.618;2022-12-17T20:55:14;39.33;;;19.73;;
39778;SDS011;25454;49.878;8.618;2022-12-17T21:00:17;41.40;;;20.33;;
39778;SDS011;25454;49.878;8.618;2022-12-17T21:05:18;45.10;;;21.93;;
39778;SDS011;25454;49.878;8.618;2022-12-17T21:10:18;42.20;;;21.43;;
39778;SDS011;25454;49.878;8.618;2022-12-17T21:15:19;40.73;;;19.97;;
39778;SDS011;25454;49.878;8.618;2022-12-17T21:20:20;39.13;;;19.47;;
39778;SDS011;25454;49.878;8.618;2022-12-17T21:25:24;40.13;;;20.33;;
39778;SDS011;25454;49.878;8.618;2022-12-17T21:30:27;39.43;;;19.83;;
39778;SDS011;25454;49.878;8.618;2022-12-17T21:35:28;38.63;;;20.00;;
39778;SDS011;25454;49.878;8.618;2022-12-17T21:40:28;38.90;;;20.23;;
39778;SDS011;25454;49.878;8.618;2022-12-17T21:45:35;40.47;;;20.17;;
39778;SDS011;25454;49.878;8.618;2022-12-17T21:50:38;37.60;;;20.10;;
39778;SDS011;25454;49.878;8.618;2022-12-17T21:55:43;41.10;;;20.77;;
39778;SDS011;25454;49.878;8.618;2022-12-17T22:00:43;39.93;;;20.43;;
39778;SDS011;25454;49.878;8.618;2022-12-17T22:05:44;41.13;;;21.43;;
39778;SDS011;25454;49.878;8.618;2022-12-17T22:10:45;40.03;;;18.73;;
39778;SDS011;25454;49.878;8.618;2022-12-17T22:15:45;43.43;;;20.47;;
39778;SDS011;25454;49.878;8.618;2022-12-17T22:20:55;38.43;;;19.07;;
39778;SDS011;25454;49.878;8.618;2022-12-17T22:26:06;41.03;;;20.50;;
39778;SDS011;25454;49.878;8.618;2022-12-17T22:31:09;38.87;;;19.60;;
39778;SDS011;25454;49.878;8.618;2022-12-17T22:36:30;38.77;;;19.10;;
39778;SDS011;25454;49.878;8.618;2022-12-17T22:41:32;37.53;;;18.83;;
39778;SDS011;25454;49.878;8.618;2022-12-17T22:46:54;38.17;;;20.07;;
39778;SDS011;25454;49.878;8.618;2022-12-17T22:51:55;39.07;;;19.53;;
39778;SDS011;25454;49.878;8.618;2022-12-17T22:56:55;42.30;;;19.93;;
39778;SDS011;25454;49.878;8.618;2022-12-17T23:01:57;39.17;;;20.33;;
39778;SDS011;25454;49.878;8.618;2022-12-17T23:06:57;41.53;;;19.80;;
39778;SDS011;25454;49.878;8.618;2022-12-17T23:11:58;40.27;;;19.00;;
39778;SDS011;25454;49.878;8.618;2022-12-17T23:17:18;36.33;;;19.00;;
39778;SDS011;25454;49.878;8.618;2022-12-17T23:22:19;41.97;;;19.90;;
39778;SDS011;25454;49.878;8.618;2022-12-17T23:27:19;42.20;;;19.70;;
39778;SDS011;25454;49.878;8.618;2022-12-17T23:32:20;42.57;;;19.97;;
39778;SDS011;25454;49.878;8.618;2022-12-17T23:37:21;47.67;;;20.87;;
39778;SDS011;25454;49.878;8.618;2022-12-17T23:42:21;39.47;;;20.17;;
39778;SDS011;25454;49.878;8.618;2022-12-17T23:47:22;41.23;;;19.70;;
39778;SDS011;25454;49.878;8.618;2022-12-17T23:52:23;39.17;;;20.20;;
39778;SDS011;25454;49.878;8.618;2022-12-17T23:57:23;42.97;;;20.63;;
